Pride Of Bruges — PGJW — position and weather

sailwx.info

Track history (hours):
 
Tides and Currents Weather Stations Pressure Air Temp Water Temp Dewpoint Dewpoint Depression Visibility Wind Speed Wind Dir Waves Ship Positions

Pride Of Bruges

Operator: P&O Ferries

Last reported at 2020-Jan-21 20:30 UTC. Time now 2020-Jan-21 22:48 UTC.
Position N 52°07' E 003°39'.

Length 180 m; draft 5.9 m.

Type: Ship (hazmat cat A). MMSI: 244387000.

Date/timePositionNaut miles runAvg speedWind from/ knotsBaromVisibWave heightAir tempDewpointWater temp
2020-Jan-21 20:30N 52°07' E 003°39'20 2.7
2020-Jan-21 13:00N 51°57' E 004°08'3 1.7
2020-Jan-21 11:31N 51°56' E 004°12'5 4.6
2020-Jan-21 10:28N 51°53' E 004°18'0 0.0
2020-Jan-21 07:30N 51°53' E 004°18'0 0.0
2020-Jan-21 07:00N 51°53' E 004°18'0 0.0
2020-Jan-21 03:58N 51°53' E 004°18'0 0.0
2020-Jan-21 03:29N 51°53' E 004°18'0 0.0
2020-Jan-21 02:58N 51°53' E 004°18'0 0.0
2020-Jan-21 01:28N 51°53' E 004°18'0 0.0
2020-Jan-21 00:58N 51°53' E 004°18'0 0.0
2020-Jan-20 20:58N 51°53' E 004°18'0 0.0
2020-Jan-20 18:29N 51°53' E 004°18'0 0.0
2020-Jan-20 16:59N 51°53' E 004°18'0 0.0
2020-Jan-20 14:58N 51°53' E 004°18'0 0.0
2020-Jan-20 13:30N 51°53' E 004°18'0 0.0
2020-Jan-20 12:00N 51°53' E 004°18'0 0.1
2020-Jan-20 10:59N 51°53' E 004°18'9 6.1
2020-Jan-20 09:30N 51°58' E 004°06'2 4.3
2020-Jan-20 08:59N 51°57' E 004°08'1 0.7
2020-Jan-20 07:00N 51°58' E 004°07'1413.8
2020-Jan-20 06:00N 52°03' E 003°46'816.2
2020-Jan-20 05:29N 52°06' E 003°33'816.0
2020-Jan-20 05:00N 52°10' E 003°23'2617.2
2020-Jan-20 03:30N 52°25' E 002°48'1818.0
2020-Jan-20 02:30N 52°36' E 002°25'1818.1
2020-Jan-20 01:30N 52°46' E 001°60'917.9
2020-Jan-20 01:00N 52°51' E 001°47'2517.0
2020-Jan-19 23:30N 53°01' E 001°09'3915.7
2020-Jan-19 21:00N 53°29' E 000°22'2713.6
2020-Jan-19 19:00N 53°44' W 000°16'0 0.8
2020-Jan-19 18:30N 53°44' W 000°16'0 0.1
2020-Jan-19 16:31N 53°45' W 000°16'0 0.0
2020-Jan-19 13:00N 53°45' W 000°16'0 0.0
2020-Jan-19 11:01N 53°45' W 000°16'0 0.0
2020-Jan-19 10:30N 53°45' W 000°16'0 0.0
2020-Jan-19 10:00N 53°45' W 000°16'0 0.0
2020-Jan-19 08:30N 53°45' W 000°16'10 5.2
2020-Jan-19 06:30N 53°37' W 000°05'3714.7
2020-Jan-19 04:00N 53°22' E 000°52'816.9
2020-Jan-19 03:30N 53°18' E 001°04'3915.8
2020-Jan-19 01:00N 52°55' E 001°57'714.4
2020-Jan-19 00:30N 52°49' E 002°05'4615.8
2020-Jan-18 21:37N 52°21' E 003°05'416.2
2020-Jan-18 21:24N 52°19' E 003°09'1416.1
2020-Jan-18 20:30N 52°10' E 003°28'1515.5
2020-Jan-18 19:31N 52°04' E 003°50'13 8.4
2020-Jan-18 18:00N 51°57' E 004°08'0 0.0
2020-Jan-18 17:29N 51°57' E 004°08'0 0.0
2020-Jan-18 16:29N 51°57' E 004°08'0 0.0
2020-Jan-18 15:29N 51°57' E 004°08'0 0.0
2020-Jan-18 14:58N 51°57' E 004°08'0 0.0
2020-Jan-18 13:28N 51°57' E 004°08'0 0.0
2020-Jan-18 10:26N 51°57' E 004°08'0 0.0
2020-Jan-18 09:59N 51°57' E 004°08'16 4.6
2020-Jan-18 06:30N 52°03' E 003°44'815.4
2020-Jan-18 06:00N 52°07' E 003°33'3515.4
2020-Jan-18 03:42N 52°26' E 002°44'2715.9
2020-Jan-18 02:00N 52°42' E 002°08'1717.0
2020-Jan-18 01:00N 52°51' E 001°45'1717.0
2020-Jan-18 00:00N 52°59' E 001°20'6215.6
2020-Jan-17 20:00N 53°36' W 000°04'11 7.2
2020-Jan-17 18:30N 53°45' W 000°16'0 0.2
2020-Jan-17 17:30N 53°45' W 000°16'0 0.0
2020-Jan-17 16:30N 53°45' W 000°16'0 0.0
2020-Jan-17 14:59N 53°45' W 000°16'0 0.0
2020-Jan-17 11:28N 53°45' W 000°16'0 0.0
2020-Jan-17 08:30N 53°45' W 000°16'7 4.7
2020-Jan-17 07:00N 53°38' W 000°11'3814.6
2020-Jan-17 04:23N 53°16' E 000°42'616.3
2020-Jan-17 04:00N 53°12' E 000°49'2517.0
2020-Jan-17 02:30N 52°58' E 001°24'3015.1
2020-Jan-17 00:30N 52°42' E 002°07'8712.4
2020-Jan-16 17:30N 51°57' E 004°08'0 0.0
2020-Jan-16 17:00N 51°57' E 004°08'0 0.0
2020-Jan-16 13:58N 51°57' E 004°08'0 0.0
2020-Jan-16 12:58N 51°57' E 004°08'0 0.0
2020-Jan-16 12:28N 51°57' E 004°08'0 0.0
2020-Jan-16 12:00N 51°57' E 004°08'0 0.0
2020-Jan-16 11:00N 51°57' E 004°08'0 0.0
2020-Jan-16 09:28N 51°57' E 004°08'0 0.0
2020-Jan-16 08:29N 51°57' E 004°08'4110.2
2020-Jan-16 04:30N 52°15' E 003°09'917.0
2020-Jan-16 03:58N 52°21' E 002°57'817.5
2020-Jan-16 03:29N 52°26' E 002°46'1818.3
2020-Jan-16 02:30N 52°36' E 002°22'1919.0
2020-Jan-16 01:31N 52°47' E 001°56'4120.3
2020-Jan-15 23:31N 53°07' E 000°58'2019.5
2020-Jan-15 22:29N 53°21' E 000°34'3815.4
2020-Jan-15 20:00N 53°44' W 000°17'0 0.7
2020-Jan-15 19:30N 53°45' W 000°16'0 0.1
2020-Jan-15 17:57N 53°45' W 000°16'0 0.0
2020-Jan-15 14:00N 53°45' W 000°16'0 0.0
2020-Jan-15 12:29N 53°45' W 000°16'0 0.0
2020-Jan-15 11:29N 53°45' W 000°16'0 0.0
2020-Jan-15 09:28N 53°45' W 000°16'0 0.0
2020-Jan-15 08:30N 53°45' W 000°16'4411.2
2020-Jan-15 04:33N 53°23' E 000°49'1817.2
2020-Jan-15 03:31N 53°11' E 001°11'1817.8
2020-Jan-15 02:31N 52°59' E 001°32'1717.0
2020-Jan-15 01:31N 52°48' E 001°54'2214.8
2020-Jan-15 00:01N 52°33' E 002°21'3714.7
2020-Jan-14 21:30N 52°17' E 003°15'714.6
2020-Jan-14 21:00N 52°12' E 003°24'2315.3
2020-Jan-14 19:30N 52°02' E 003°58'8 8.3
2020-Jan-14 18:30N 51°57' E 004°08'0 0.0
2020-Jan-14 17:59N 51°57' E 004°08'0 0.0
2020-Jan-14 17:29N 51°57' E 004°08'0 0.0
2020-Jan-14 16:59N 51°57' E 004°08'0 0.0
2020-Jan-14 14:58N 51°57' E 004°08'0 0.0
2020-Jan-14 14:28N 51°57' E 004°08'0 0.0
2020-Jan-14 13:30N 51°57' E 004°08'0 0.0
2020-Jan-14 12:00N 51°57' E 004°08'0 0.0
2020-Jan-14 11:30N 51°57' E 004°08'0 0.0
2020-Jan-14 10:59N 51°57' E 004°08'0 0.0
2020-Jan-14 09:59N 51°57' E 004°08'4 1.8
2020-Jan-14 07:31N 51°59' E 004°02'2617.2
2020-Jan-14 06:00N 52°10' E 003°24'917.2
2020-Jan-14 05:30N 52°15' E 003°13'7216.2
2020-Jan-14 01:01N 53°01' E 001°40'7316.3
2020-Jan-13 20:31N 53°37' W 000°07'9 3.7
2020-Jan-13 18:00N 53°45' W 000°16'0 0.0
2020-Jan-13 17:00N 53°45' W 000°16'0 0.0
2020-Jan-13 12:00N 53°45' W 000°16'0 0.0
2020-Jan-13 10:59N 53°45' W 000°16'0 0.1
2020-Jan-13 08:00N 53°45' W 000°16'1510.3
2020-Jan-13 06:31N 53°35' E 000°04'3113.3
2020-Jan-13 04:12N 53°23' E 000°52'314.5
2020-Jan-13 04:00N 53°22' E 000°56'714.6
2020-Jan-13 03:31N 53°17' E 001°05'2415.8
2020-Jan-13 02:01N 52°59' E 001°31'816.6
2020-Jan-13 01:30N 52°53' E 001°41'1616.4
2020-Jan-13 00:30N 52°45' E 002°04'5914.7
2020-Jan-12 20:30N 52°12' E 003°24'3014.9
2020-Jan-12 18:30N 51°58' E 004°07'2 1.5
2020-Jan-12 17:30N 51°57' E 004°08'0 0.0
2020-Jan-12 16:29N 51°57' E 004°08'0 0.0
2020-Jan-12 15:59N 51°57' E 004°08'0 0.0
2020-Jan-12 15:29N 51°57' E 004°08'0 0.0
2020-Jan-12 12:28N 51°57' E 004°08'0 0.0
2020-Jan-12 11:30N 51°57' E 004°08'0 0.0
2020-Jan-12 10:30N 51°57' E 004°08'0 0.0
2020-Jan-12 08:59N 51°57' E 004°08'0 0.0
2020-Jan-12 08:29N 51°57' E 004°08'11 7.7
2020-Jan-12 07:00N 52°01' E 003°51'6616.5
2020-Jan-12 03:01N 52°40' E 002°23'3215.8
2020-Jan-12 01:01N 53°00' E 001°43'1616.0
2020-Jan-12 00:01N 53°10' E 001°22'1616.1
2020-Jan-11 23:01N 53°20' E 001°00'916.6
2020-Jan-11 22:30N 53°23' E 000°47'2016.0
2020-Jan-11 21:13N 53°33' E 000°17'418.5
2020-Jan-11 21:01N 53°33' E 000°10'  
Track history (hours):
 
Tides and Currents Weather Stations Pressure Air Temp Water Temp Dewpoint Dewpoint Depression Visibility Wind Speed Wind Dir Waves Ship Positions

Pride Of Bruges

Operator: P&O Ferries

Last reported at 2020-Jan-21 20:30 UTC. Time now 2020-Jan-21 22:48 UTC.
Position N 52°07' E 003°39'.

Length 180 m; draft 5.9 m.

Type: Ship (hazmat cat A). MMSI: 244387000.

Date/timePositionNaut miles runAvg speedWind from/ knotsBaromVisibWave heightAir tempDewpointWater temp
2020-Jan-21 20:30N 52°07' E 003°39'20 2.7
2020-Jan-21 13:00N 51°57' E 004°08'3 1.7
2020-Jan-21 11:31N 51°56' E 004°12'5 4.6
2020-Jan-21 10:28N 51°53' E 004°18'0 0.0
2020-Jan-21 07:30N 51°53' E 004°18'0 0.0
2020-Jan-21 07:00N 51°53' E 004°18'0 0.0
2020-Jan-21 03:58N 51°53' E 004°18'0 0.0
2020-Jan-21 03:29N 51°53' E 004°18'0 0.0
2020-Jan-21 02:58N 51°53' E 004°18'0 0.0
2020-Jan-21 01:28N 51°53' E 004°18'0 0.0
2020-Jan-21 00:58N 51°53' E 004°18'0 0.0
2020-Jan-20 20:58N 51°53' E 004°18'0 0.0
2020-Jan-20 18:29N 51°53' E 004°18'0 0.0
2020-Jan-20 16:59N 51°53' E 004°18'0 0.0
2020-Jan-20 14:58N 51°53' E 004°18'0 0.0
2020-Jan-20 13:30N 51°53' E 004°18'0 0.0
2020-Jan-20 12:00N 51°53' E 004°18'0 0.1
2020-Jan-20 10:59N 51°53' E 004°18'9 6.1
2020-Jan-20 09:30N 51°58' E 004°06'2 4.3
2020-Jan-20 08:59N 51°57' E 004°08'1 0.7
2020-Jan-20 07:00N 51°58' E 004°07'1413.8
2020-Jan-20 06:00N 52°03' E 003°46'816.2
2020-Jan-20 05:29N 52°06' E 003°33'816.0
2020-Jan-20 05:00N 52°10' E 003°23'2617.2
2020-Jan-20 03:30N 52°25' E 002°48'1818.0
2020-Jan-20 02:30N 52°36' E 002°25'1818.1
2020-Jan-20 01:30N 52°46' E 001°60'917.9
2020-Jan-20 01:00N 52°51' E 001°47'2517.0
2020-Jan-19 23:30N 53°01' E 001°09'3915.7
2020-Jan-19 21:00N 53°29' E 000°22'2713.6
2020-Jan-19 19:00N 53°44' W 000°16'0 0.8
2020-Jan-19 18:30N 53°44' W 000°16'0 0.1
2020-Jan-19 16:31N 53°45' W 000°16'0 0.0
2020-Jan-19 13:00N 53°45' W 000°16'0 0.0
2020-Jan-19 11:01N 53°45' W 000°16'0 0.0
2020-Jan-19 10:30N 53°45' W 000°16'0 0.0
2020-Jan-19 10:00N 53°45' W 000°16'0 0.0
2020-Jan-19 08:30N 53°45' W 000°16'10 5.2
2020-Jan-19 06:30N 53°37' W 000°05'3714.7
2020-Jan-19 04:00N 53°22' E 000°52'816.9
2020-Jan-19 03:30N 53°18' E 001°04'3915.8
2020-Jan-19 01:00N 52°55' E 001°57'714.4
2020-Jan-19 00:30N 52°49' E 002°05'4615.8
2020-Jan-18 21:37N 52°21' E 003°05'416.2
2020-Jan-18 21:24N 52°19' E 003°09'1416.1
2020-Jan-18 20:30N 52°10' E 003°28'1515.5
2020-Jan-18 19:31N 52°04' E 003°50'13 8.4
2020-Jan-18 18:00N 51°57' E 004°08'0 0.0
2020-Jan-18 17:29N 51°57' E 004°08'0 0.0
2020-Jan-18 16:29N 51°57' E 004°08'0 0.0
2020-Jan-18 15:29N 51°57' E 004°08'0 0.0
2020-Jan-18 14:58N 51°57' E 004°08'0 0.0
2020-Jan-18 13:28N 51°57' E 004°08'0 0.0
2020-Jan-18 10:26N 51°57' E 004°08'0 0.0
2020-Jan-18 09:59N 51°57' E 004°08'16 4.6
2020-Jan-18 06:30N 52°03' E 003°44'815.4
2020-Jan-18 06:00N 52°07' E 003°33'3515.4
2020-Jan-18 03:42N 52°26' E 002°44'2715.9
2020-Jan-18 02:00N 52°42' E 002°08'1717.0
2020-Jan-18 01:00N 52°51' E 001°45'1717.0
2020-Jan-18 00:00N 52°59' E 001°20'6215.6
2020-Jan-17 20:00N 53°36' W 000°04'11 7.2
2020-Jan-17 18:30N 53°45' W 000°16'0 0.2
2020-Jan-17 17:30N 53°45' W 000°16'0 0.0
2020-Jan-17 16:30N 53°45' W 000°16'0 0.0
2020-Jan-17 14:59N 53°45' W 000°16'0 0.0
2020-Jan-17 11:28N 53°45' W 000°16'0 0.0
2020-Jan-17 08:30N 53°45' W 000°16'7 4.7
2020-Jan-17 07:00N 53°38' W 000°11'3814.6
2020-Jan-17 04:23N 53°16' E 000°42'616.3
2020-Jan-17 04:00N 53°12' E 000°49'2517.0
2020-Jan-17 02:30N 52°58' E 001°24'3015.1
2020-Jan-17 00:30N 52°42' E 002°07'8712.4
2020-Jan-16 17:30N 51°57' E 004°08'0 0.0
2020-Jan-16 17:00N 51°57' E 004°08'0 0.0
2020-Jan-16 13:58N 51°57' E 004°08'0 0.0
2020-Jan-16 12:58N 51°57' E 004°08'0 0.0
2020-Jan-16 12:28N 51°57' E 004°08'0 0.0
2020-Jan-16 12:00N 51°57' E 004°08'0 0.0
2020-Jan-16 11:00N 51°57' E 004°08'0 0.0
2020-Jan-16 09:28N 51°57' E 004°08'0 0.0
2020-Jan-16 08:29N 51°57' E 004°08'4110.2
2020-Jan-16 04:30N 52°15' E 003°09'917.0
2020-Jan-16 03:58N 52°21' E 002°57'817.5
2020-Jan-16 03:29N 52°26' E 002°46'1818.3
2020-Jan-16 02:30N 52°36' E 002°22'1919.0
2020-Jan-16 01:31N 52°47' E 001°56'4120.3
2020-Jan-15 23:31N 53°07' E 000°58'2019.5
2020-Jan-15 22:29N 53°21' E 000°34'3815.4
2020-Jan-15 20:00N 53°44' W 000°17'0 0.7
2020-Jan-15 19:30N 53°45' W 000°16'0 0.1
2020-Jan-15 17:57N 53°45' W 000°16'0 0.0
2020-Jan-15 14:00N 53°45' W 000°16'0 0.0
2020-Jan-15 12:29N 53°45' W 000°16'0 0.0
2020-Jan-15 11:29N 53°45' W 000°16'0 0.0
2020-Jan-15 09:28N 53°45' W 000°16'0 0.0
2020-Jan-15 08:30N 53°45' W 000°16'4411.2
2020-Jan-15 04:33N 53°23' E 000°49'1817.2
2020-Jan-15 03:31N 53°11' E 001°11'1817.8
2020-Jan-15 02:31N 52°59' E 001°32'1717.0
2020-Jan-15 01:31N 52°48' E 001°54'2214.8
2020-Jan-15 00:01N 52°33' E 002°21'3714.7
2020-Jan-14 21:30N 52°17' E 003°15'714.6
2020-Jan-14 21:00N 52°12' E 003°24'2315.3
2020-Jan-14 19:30N 52°02' E 003°58'8 8.3
2020-Jan-14 18:30N 51°57' E 004°08'0 0.0
2020-Jan-14 17:59N 51°57' E 004°08'0 0.0
2020-Jan-14 17:29N 51°57' E 004°08'0 0.0
2020-Jan-14 16:59N 51°57' E 004°08'0 0.0
2020-Jan-14 14:58N 51°57' E 004°08'0 0.0
2020-Jan-14 14:28N 51°57' E 004°08'0 0.0
2020-Jan-14 13:30N 51°57' E 004°08'0 0.0
2020-Jan-14 12:00N 51°57' E 004°08'0 0.0
2020-Jan-14 11:30N 51°57' E 004°08'0 0.0
2020-Jan-14 10:59N 51°57' E 004°08'0 0.0
2020-Jan-14 09:59N 51°57' E 004°08'4 1.8
2020-Jan-14 07:31N 51°59' E 004°02'2617.2
2020-Jan-14 06:00N 52°10' E 003°24'917.2
2020-Jan-14 05:30N 52°15' E 003°13'7216.2
2020-Jan-14 01:01N 53°01' E 001°40'7316.3
2020-Jan-13 20:31N 53°37' W 000°07'9 3.7
2020-Jan-13 18:00N 53°45' W 000°16'0 0.0
2020-Jan-13 17:00N 53°45' W 000°16'0 0.0
2020-Jan-13 12:00N 53°45' W 000°16'0 0.0
2020-Jan-13 10:59N 53°45' W 000°16'0 0.1
2020-Jan-13 08:00N 53°45' W 000°16'1510.3
2020-Jan-13 06:31N 53°35' E 000°04'3113.3
2020-Jan-13 04:12N 53°23' E 000°52'314.5
2020-Jan-13 04:00N 53°22' E 000°56'714.6
2020-Jan-13 03:31N 53°17' E 001°05'2415.8
2020-Jan-13 02:01N 52°59' E 001°31'816.6
2020-Jan-13 01:30N 52°53' E 001°41'1616.4
2020-Jan-13 00:30N 52°45' E 002°04'5914.7
2020-Jan-12 20:30N 52°12' E 003°24'3014.9
2020-Jan-12 18:30N 51°58' E 004°07'2 1.5
2020-Jan-12 17:30N 51°57' E 004°08'0 0.0
2020-Jan-12 16:29N 51°57' E 004°08'0 0.0
2020-Jan-12 15:59N 51°57' E 004°08'0 0.0
2020-Jan-12 15:29N 51°57' E 004°08'0 0.0
2020-Jan-12 12:28N 51°57' E 004°08'0 0.0
2020-Jan-12 11:30N 51°57' E 004°08'0 0.0
2020-Jan-12 10:30N 51°57' E 004°08'0 0.0
2020-Jan-12 08:59N 51°57' E 004°08'0 0.0
2020-Jan-12 08:29N 51°57' E 004°08'11 7.7
2020-Jan-12 07:00N 52°01' E 003°51'6616.5
2020-Jan-12 03:01N 52°40' E 002°23'3215.8
2020-Jan-12 01:01N 53°00' E 001°43'1616.0
2020-Jan-12 00:01N 53°10' E 001°22'1616.1
2020-Jan-11 23:01N 53°20' E 001°00'916.6
2020-Jan-11 22:30N 53°23' E 000°47'2016.0
2020-Jan-11 21:13N 53°33' E 000°17'418.5
2020-Jan-11 21:01N 53°33' E 000°10'  

Dump ship's entire track history